createdAt,value
2018-09-14T00:00:50.968Z,6.67
2018-09-14T00:03:19.385Z,5.03
2018-09-14T00:05:47.750Z,7.07
2018-09-14T00:08:16.548Z,7.47
2018-09-14T00:10:45.381Z,7.67
2018-09-14T00:13:14.201Z,9.53
2018-09-14T00:15:42.621Z,10.43
2018-09-14T00:18:11.430Z,12.43
2018-09-14T00:20:39.813Z,10.50
2018-09-14T00:23:08.655Z,11.93
2018-09-14T00:25:37.490Z,13.80
2018-09-14T00:28:06.336Z,11.27
2018-09-14T00:30:34.732Z,16.47
2018-09-14T00:33:03.540Z,15.47
2018-09-14T00:35:31.929Z,15.63
2018-09-14T00:38:00.337Z,14.23
2018-09-14T00:40:28.720Z,15.87
2018-09-14T00:42:57.486Z,11.60
2018-09-14T00:45:25.900Z,14.60
2018-09-14T00:47:54.679Z,14.87
2018-09-14T00:50:23.325Z,13.60
2018-09-14T00:52:51.701Z,12.70
2018-09-14T00:55:20.063Z,13.83
2018-09-14T00:57:48.458Z,11.40
2018-09-14T01:00:17.247Z,11.40
2018-09-14T01:02:45.641Z,13.07
2018-09-14T01:05:14.445Z,13.07
2018-09-14T01:07:42.873Z,10.57
2018-09-14T01:10:11.191Z,10.20
2018-09-14T01:12:39.941Z,10.53
2018-09-14T01:15:08.362Z,10.70
2018-09-14T01:17:36.754Z,10.47
2018-09-14T01:20:05.265Z,11.30
2018-09-14T01:22:33.624Z,10.03
2018-09-14T01:25:02.014Z,9.73
2018-09-14T01:27:30.927Z,11.30
2018-09-14T01:29:59.765Z,12.00
2018-09-14T01:32:28.161Z,10.00
2018-09-14T01:34:56.548Z,10.10
2018-09-14T01:37:25.336Z,11.00
2018-09-14T01:39:53.685Z,12.20
2018-09-14T01:42:22.858Z,11.50
2018-09-14T01:44:51.575Z,10.57
2018-09-14T01:47:19.946Z,11.40
2018-09-14T01:49:49.007Z,11.00
2018-09-14T01:52:17.744Z,10.30
2018-09-14T01:54:46.164Z,10.43
2018-09-14T01:57:14.567Z,10.33
2018-09-14T01:59:42.960Z,9.87
2018-09-14T02:02:11.839Z,10.93
2018-09-14T02:04:40.681Z,9.43
2018-09-14T02:07:09.446Z,9.83
2018-09-14T02:09:37.838Z,9.20
2018-09-14T02:12:06.287Z,9.73
2018-09-14T02:14:34.683Z,9.60
2018-09-14T02:17:03.088Z,9.73
2018-09-14T02:19:31.885Z,9.83
2018-09-14T02:22:00.317Z,10.07
2018-09-14T02:24:29.118Z,9.87
2018-09-14T02:26:57.514Z,10.93
2018-09-14T02:29:25.964Z,12.33
2018-09-14T02:31:54.399Z,12.40
2018-09-14T02:34:23.182Z,11.13
2018-09-14T02:36:52.004Z,11.47
2018-09-14T02:39:20.869Z,12.23
2018-09-14T02:41:49.281Z,12.87
2018-09-14T02:44:17.711Z,10.77
2018-09-14T02:46:46.511Z,10.43
2018-09-14T02:49:14.960Z,11.30
2018-09-14T02:51:43.465Z,11.97
2018-09-14T02:54:12.253Z,11.70
2018-09-14T02:56:40.718Z,12.70
2018-09-14T02:59:09.586Z,11.60
2018-09-14T03:01:38.031Z,11.30
2018-09-14T03:04:06.716Z,11.73
2018-09-14T03:06:35.574Z,10.80
2018-09-14T03:09:06.341Z,10.77
2018-09-14T03:11:34.786Z,10.80
2018-09-14T03:14:03.865Z,11.73
2018-09-14T03:16:32.707Z,11.70
2018-09-14T03:19:01.079Z,12.30
2018-09-14T03:21:29.861Z,11.70
2018-09-14T03:23:58.774Z,10.97
2018-09-14T03:26:27.573Z,11.13
2018-09-14T03:28:56.429Z,11.67
2018-09-14T03:31:25.617Z,11.73
2018-09-14T03:33:54.708Z,10.60
2018-09-14T03:36:23.112Z,9.97
2018-09-14T03:38:51.499Z,12.57
2018-09-14T03:41:20.330Z,11.93
2018-09-14T03:43:48.731Z,12.03
2018-09-14T03:46:17.116Z,13.20
2018-09-14T03:48:45.553Z,14.17
2018-09-14T03:51:14.396Z,13.60
2018-09-14T03:53:43.146Z,12.00
2018-09-14T03:56:12.244Z,12.10
2018-09-14T03:58:41.051Z,10.13
2018-09-14T04:01:09.432Z,10.60
2018-09-14T04:03:38.260Z,10.00
2018-09-14T04:06:07.092Z,8.73
2018-09-14T04:08:35.483Z,8.53
2018-09-14T04:11:03.884Z,8.60
2018-09-14T04:13:32.299Z,8.57
2018-09-14T04:16:01.133Z,9.27
2018-09-14T04:18:29.509Z,8.90
2018-09-14T04:20:57.896Z,9.47
2018-09-14T04:23:26.316Z,9.50
2018-09-14T04:25:55.118Z,9.53
2018-09-14T04:28:23.957Z,10.03
2018-09-14T04:30:52.391Z,11.43
2018-09-14T04:33:21.157Z,10.83
2018-09-14T04:35:49.541Z,10.67
2018-09-14T04:38:18.444Z,11.53
2018-09-14T04:40:47.205Z,11.17
2018-09-14T04:43:15.575Z,13.30
2018-09-14T04:45:44.374Z,12.97
2018-09-14T04:48:13.215Z,16.40
2018-09-14T04:50:41.982Z,16.87
2018-09-14T04:53:10.886Z,20.40
2018-09-14T04:55:39.655Z,14.43
2018-09-14T04:58:08.484Z,16.87
2018-09-14T05:00:37.290Z,19.27
2018-09-14T05:03:06.074Z,15.47
2018-09-14T05:05:34.858Z,16.80
2018-09-14T05:08:03.698Z,15.40
2018-09-14T05:10:32.531Z,18.07
2018-09-14T05:13:00.922Z,17.43
2018-09-14T05:15:29.746Z,16.97
2018-09-14T05:17:59.455Z,18.03
2018-09-14T05:20:27.940Z,17.87
2018-09-14T05:22:56.741Z,16.07
2018-09-14T05:25:25.290Z,17.37
2018-09-14T05:27:53.871Z,15.57
2018-09-14T05:30:22.267Z,14.43
2018-09-14T05:32:50.710Z,15.13
2018-09-14T05:35:19.105Z,13.93
2018-09-14T05:37:47.929Z,13.60
2018-09-14T05:40:16.385Z,15.30
2018-09-14T05:42:44.765Z,16.10
2018-09-14T05:45:13.645Z,15.80
2018-09-14T05:47:42.451Z,16.30
2018-09-14T05:50:11.425Z,18.50
2018-09-14T05:52:39.807Z,12.73
2018-09-14T05:55:08.244Z,15.17
2018-09-14T05:57:37.091Z,14.90
2018-09-14T06:00:05.965Z,15.77
2018-09-14T06:02:34.758Z,16.47
2018-09-14T06:05:03.288Z,15.63
2018-09-14T06:07:32.099Z,12.50
2018-09-14T06:10:00.918Z,13.33
2018-09-14T06:12:29.746Z,15.90
2018-09-14T06:14:58.185Z,18.07
2018-09-14T06:17:27.090Z,14.57
2018-09-14T06:19:55.505Z,15.27
2018-09-14T06:22:24.244Z,16.43
2018-09-14T06:24:53.088Z,14.47
2018-09-14T06:27:21.468Z,14.40
2018-09-14T06:29:50.258Z,17.27
2018-09-14T06:32:19.070Z,16.90
2018-09-14T06:34:47.463Z,17.00
2018-09-14T06:37:16.389Z,19.50
2018-09-14T06:39:45.251Z,17.83
2018-09-14T06:42:14.078Z,17.77
2018-09-14T06:44:42.478Z,18.57
2018-09-14T06:47:10.907Z,21.03
2018-09-14T06:49:39.765Z,17.07
2018-09-14T06:52:08.347Z,18.23
2018-09-14T06:54:36.898Z,18.33
2018-09-14T06:57:05.725Z,17.67
2018-09-14T06:59:34.628Z,21.40
2018-09-14T07:02:03.444Z,24.27
2018-09-14T07:04:32.288Z,19.13
2018-09-14T07:07:00.668Z,17.43
2018-09-14T07:09:29.458Z,18.97
2018-09-14T07:11:58.272Z,20.47
2018-09-14T07:14:27.100Z,18.37
2018-09-14T07:16:55.522Z,19.40
2018-09-14T07:19:23.924Z,19.33
2018-09-14T07:21:52.553Z,19.43
2018-09-14T07:24:21.110Z,19.23
2018-09-14T07:26:49.908Z,20.50
2018-09-14T07:29:18.420Z,20.67
2018-09-14T07:31:46.801Z,21.10
2018-09-14T07:34:15.593Z,22.13
2018-09-14T07:36:44.016Z,21.63
2018-09-14T07:39:12.968Z,20.77
2018-09-14T07:41:41.672Z,20.20
2018-09-14T07:44:10.443Z,22.90
2018-09-14T07:46:39.262Z,21.80
2018-09-14T07:49:07.995Z,22.30
2018-09-14T07:51:36.855Z,21.97
2018-09-14T07:54:05.260Z,20.73
2018-09-14T07:56:34.103Z,22.00
2018-09-14T07:59:02.937Z,21.40
2018-09-14T08:01:31.333Z,20.20
2018-09-14T08:04:00.278Z,20.20
2018-09-14T08:06:28.952Z,21.80
2018-09-14T08:08:57.719Z,21.23
2018-09-14T08:11:26.143Z,21.67
2018-09-14T08:13:54.515Z,22.50
2018-09-14T08:16:23.315Z,23.27
2018-09-14T08:18:51.766Z,22.43
2018-09-14T08:21:20.667Z,21.40
2018-09-14T08:23:49.091Z,20.57
2018-09-14T08:26:17.876Z,21.57
2018-09-14T08:28:46.761Z,21.40
2018-09-14T08:31:15.181Z,22.70
2018-09-14T08:33:43.991Z,22.23
2018-09-14T08:36:12.758Z,22.77
2018-09-14T08:38:41.721Z,23.70
2018-09-14T08:41:10.560Z,25.80
2018-09-14T08:43:39.378Z,22.77
2018-09-14T08:46:07.765Z,23.17
2018-09-14T08:48:36.584Z,22.87
2018-09-14T08:51:05.340Z,23.40
2018-09-14T08:53:34.268Z,22.10
2018-09-14T08:56:03.014Z,22.97
2018-09-14T08:58:31.798Z,23.33
2018-09-14T09:01:00.261Z,21.00
2018-09-14T09:03:28.726Z,22.57
2018-09-14T09:05:57.525Z,21.23
2018-09-14T09:08:25.929Z,21.43
2018-09-14T09:10:54.741Z,20.50
2018-09-14T09:13:23.515Z,18.50
2018-09-14T09:15:52.318Z,18.67
2018-09-14T09:18:20.693Z,18.47
2018-09-14T09:20:49.526Z,18.90
2018-09-14T09:23:18.300Z,16.73
2018-09-14T09:25:47.114Z,17.27
2018-09-14T09:28:15.519Z,16.27
2018-09-14T09:30:44.326Z,17.53
2018-09-14T09:33:13.159Z,15.70
2018-09-14T09:35:41.898Z,17.33
2018-09-14T09:38:10.994Z,14.90
2018-09-14T09:40:39.384Z,15.70
2018-09-14T09:43:07.861Z,14.97
2018-09-14T09:45:36.628Z,15.03
2018-09-14T09:48:05.438Z,13.77
2018-09-14T09:50:33.879Z,15.73
2018-09-14T09:53:02.775Z,15.00
2018-09-14T09:55:31.551Z,14.47
2018-09-14T09:57:59.932Z,13.00
2018-09-14T10:00:35.296Z,14.43
2018-09-14T10:03:09.978Z,13.33
2018-09-14T10:05:44.220Z,13.00
2018-09-14T10:08:12.653Z,12.93
2018-09-14T10:10:41.466Z,12.37
2018-09-14T10:13:10.306Z,11.30
2018-09-14T10:15:39.160Z,12.10
2018-09-14T10:18:07.974Z,11.13
2018-09-14T10:20:36.785Z,11.53
2018-09-14T10:23:06.413Z,11.63
2018-09-14T10:25:34.812Z,12.30
2018-09-14T10:28:03.590Z,12.20
2018-09-14T10:30:32.075Z,11.87
2018-09-14T10:33:00.849Z,13.40
2018-09-14T10:35:29.776Z,12.17
2018-09-14T10:37:58.306Z,12.57
2018-09-14T10:40:27.238Z,12.77
2018-09-14T10:42:56.214Z,12.00
2018-09-14T10:45:25.095Z,12.33
2018-09-14T10:47:53.939Z,11.93
2018-09-14T10:50:22.727Z,13.97
2018-09-14T10:52:51.151Z,14.80
2018-09-14T10:55:19.607Z,13.77
2018-09-14T10:57:47.998Z,13.07
2018-09-14T11:00:16.426Z,13.57
2018-09-14T11:02:44.849Z,12.90
2018-09-14T11:05:13.299Z,13.40
2018-09-14T11:07:41.755Z,14.67
2018-09-14T11:10:10.496Z,13.90
2018-09-14T11:12:39.567Z,11.83
2018-09-14T11:15:08.086Z,11.63
2018-09-14T11:17:36.524Z,12.57
2018-09-14T11:20:05.007Z,10.47
2018-09-14T11:22:33.569Z,11.13
2018-09-14T11:25:02.671Z,10.00
2018-09-14T11:27:32.458Z,10.27
2018-09-14T11:30:01.295Z,9.63
2018-09-14T11:32:29.807Z,11.30
2018-09-14T11:34:58.644Z,9.07
2018-09-14T11:37:27.499Z,8.70
2018-09-14T11:39:57.233Z,5.83
2018-09-14T11:42:26.726Z,4.27
2018-09-14T11:44:55.327Z,4.43
2018-09-14T11:47:23.899Z,4.97
2018-09-14T11:49:52.291Z,5.40
2018-09-14T11:52:21.133Z,4.20
2018-09-14T11:54:50.600Z,4.90
2018-09-14T11:57:19.045Z,4.37
2018-09-14T11:59:48.443Z,4.60
2018-09-14T12:02:16.933Z,4.77
2018-09-14T12:04:45.745Z,3.87
2018-09-14T12:07:14.489Z,3.00
2018-09-14T12:09:43.267Z,4.47
2018-09-14T12:12:12.106Z,7.43
2018-09-14T12:14:40.941Z,4.90
2018-09-14T12:17:10.167Z,5.73
2018-09-14T12:19:38.952Z,5.60
2018-09-14T12:22:07.480Z,4.53
2018-09-14T12:24:36.466Z,3.90
2018-09-14T12:27:05.892Z,4.10
2018-09-14T12:29:34.889Z,3.20
2018-09-14T12:32:03.348Z,3.83
2018-09-14T12:34:31.772Z,3.73
2018-09-14T12:37:00.564Z,3.63
2018-09-14T12:39:29.392Z,3.53
2018-09-14T12:41:58.212Z,3.40
2018-09-14T12:44:26.612Z,3.60
2018-09-14T12:46:55.371Z,4.30
2018-09-14T12:49:24.187Z,3.93
2018-09-14T12:51:52.991Z,4.53
2018-09-14T12:54:21.872Z,4.57
2018-09-14T12:56:50.664Z,5.50
2018-09-14T12:59:19.480Z,5.77
2018-09-14T13:01:48.441Z,5.30
2018-09-14T13:04:17.313Z,6.00
2018-09-14T13:06:46.084Z,6.47
2018-09-14T13:09:14.898Z,6.33
2018-09-14T13:11:43.312Z,6.87
2018-09-14T13:14:12.047Z,7.67
2018-09-14T13:16:40.824Z,7.67
2018-09-14T13:19:09.240Z,7.43
2018-09-14T13:21:37.616Z,9.33
2018-09-14T13:24:06.483Z,8.80
2018-09-14T13:26:34.889Z,8.60
2018-09-14T13:29:03.710Z,9.20
2018-09-14T13:31:32.489Z,7.73
2018-09-14T13:34:00.900Z,8.27
2018-09-14T13:36:29.312Z,7.30
2018-09-14T13:38:58.458Z,8.20
2018-09-14T13:41:29.183Z,7.50
2018-09-14T13:43:58.160Z,7.43
2018-09-14T13:46:26.941Z,7.33
2018-09-14T13:48:55.802Z,6.80
2018-09-14T13:51:24.187Z,8.83
2018-09-14T13:53:52.574Z,6.77
2018-09-14T13:56:21.370Z,8.13
2018-09-14T13:58:50.543Z,8.00
2018-09-14T14:01:19.355Z,6.53
2018-09-14T14:03:47.799Z,7.63
2018-09-14T14:06:16.632Z,6.33
2018-09-14T14:08:45.421Z,6.90
2018-09-14T14:11:14.219Z,6.53
2018-09-14T14:13:43.088Z,6.40
2018-09-14T14:16:11.864Z,5.97
2018-09-14T14:18:40.679Z,6.80
2018-09-14T14:21:09.549Z,6.97
2018-09-14T14:23:37.970Z,7.67
2018-09-14T14:26:06.780Z,6.73
2018-09-14T14:28:35.547Z,7.50
2018-09-14T14:31:03.950Z,7.13
2018-09-14T14:33:32.770Z,7.73
2018-09-14T14:36:01.304Z,6.73
2018-09-14T14:38:29.698Z,6.70
2018-09-14T14:40:58.518Z,5.83
2018-09-14T14:43:27.299Z,5.70
2018-09-14T14:45:56.192Z,7.30
2018-09-14T14:48:24.643Z,5.73
2018-09-14T14:50:53.468Z,5.90
2018-09-14T14:53:21.889Z,6.53
2018-09-14T14:55:50.724Z,6.40
2018-09-14T14:58:19.202Z,6.63
2018-09-14T15:00:48.100Z,6.27
2018-09-14T15:03:16.569Z,6.60
2018-09-14T15:05:45.428Z,5.40
2018-09-14T15:08:14.187Z,5.80
2018-09-14T15:10:42.996Z,5.70
2018-09-14T15:13:13.073Z,5.20
2018-09-14T15:15:42.724Z,5.97
2018-09-14T15:18:11.861Z,6.23
2018-09-14T15:20:40.341Z,5.97
2018-09-14T15:23:08.735Z,6.23
2018-09-14T15:25:37.549Z,6.53
2018-09-14T15:28:06.555Z,6.30
2018-09-14T15:30:35.214Z,6.13
2018-09-14T15:33:04.049Z,6.13
2018-09-14T15:35:32.431Z,5.93
2018-09-14T15:38:01.332Z,6.57
2018-09-14T15:40:38.040Z,6.00
2018-09-14T15:43:06.848Z,7.57
2018-09-14T15:45:35.704Z,5.93
2018-09-14T15:48:04.094Z,5.83
2018-09-14T15:50:32.883Z,6.33
2018-09-14T15:53:01.662Z,7.03
2018-09-14T15:55:30.449Z,6.53
